Time;durP1;ratioP1;P1;durP2;ratioP2;P2;SDS_P1;SDS_P2;PMS_P1;PMS_P2;Temp;Humidity;BMP_temperature;BMP_pressure;BME280_temperature;BME280_humidity;BME280_pressure;Samples;Min_cycle;Max_cycle;Signal;HPM_P1;HPM_P2
2022/01/18 00:01:16;;;;;;;1.65;1.55;;;4.20;99.90;;;;;;5053982;28;20041;-74
2022/01/18 00:03:42;;;;;;;1.45;1.05;;;4.20;99.90;;;;;;5069104;28;20414;-74
2022/01/18 00:06:08;;;;;;;0.63;0.63;;;4.20;99.90;;;;;;5052393;28;20033;-74
2022/01/18 00:08:34;;;;;;;0.85;0.63;;;4.10;99.90;;;;;;5053414;28;20048;-74
2022/01/18 00:10:59;;;;;;;2.78;2.58;;;4.20;99.90;;;;;;5052530;28;20543;-74
2022/01/18 00:13:38;;;;;;;1.60;1.50;;;4.20;99.90;;;;;;5052100;28;20136;-74
2022/01/18 00:18:35;;;;;;;0.55;0.55;;;4.10;99.90;;;;;;5052017;28;20642;-74
2022/01/18 00:23:38;;;;;;;1.23;1.23;;;4.10;99.90;;;;;;5053198;28;20037;-73
2022/01/18 00:26:08;;;;;;;4.43;1.27;;;4.10;99.90;;;;;;5052144;28;20036;-73
2022/01/18 00:28:36;;;;;;;1.77;1.10;;;4.10;99.90;;;;;;5051654;28;20194;-74
2022/01/18 00:36:01;;;;;;;0.65;0.65;;;4.00;99.90;;;;;;5053398;28;20274;-74
2022/01/18 00:38:31;;;;;;;1.73;1.10;;;4.00;99.90;;;;;;5052266;28;20095;-73
2022/01/18 00:40:58;;;;;;;0.30;0.30;;;4.00;99.90;;;;;;5052551;28;20029;-74
2022/01/18 00:43:24;;;;;;;1.13;1.02;;;4.00;99.90;;;;;;5052987;28;20047;-74
2022/01/18 00:45:50;;;;;;;1.88;1.77;;;3.90;99.90;;;;;;5052867;28;20032;-75
2022/01/18 00:48:17;;;;;;;0.82;0.82;;;4.00;99.90;;;;;;5052686;28;20033;-74
2022/01/18 00:50:46;;;;;;;2.40;2.30;;;4.00;99.90;;;;;;5051020;28;20397;-74
2022/01/18 00:53:15;;;;;;;0.35;0.35;;;4.00;99.90;;;;;;5051838;28;20025;-75
2022/01/18 00:55:53;;;;;;;1.50;1.08;;;4.10;99.90;;;;;;5052332;28;20370;-74
2022/01/18 00:58:19;;;;;;;0.70;0.70;;;4.00;99.90;;;;;;5051834;28;20045;-73
2022/01/18 01:00:45;;;;;;;2.05;1.85;;;4.00;99.90;;;;;;5052236;28;20044;-74
2022/01/18 01:03:10;;;;;;;1.63;1.33;;;4.10;99.90;;;;;;5051108;28;20033;-73
2022/01/18 01:05:36;;;;;;;2.72;1.80;;;4.10;99.90;;;;;;5051064;28;20139;-73
2022/01/18 01:08:02;;;;;;;0.43;0.43;;;4.10;99.90;;;;;;5052337;28;20036;-73
2022/01/18 01:10:29;;;;;;;4.88;1.08;;;4.10;99.90;;;;;;5052459;28;20045;-74
2022/01/18 01:12:55;;;;;;;0.47;0.47;;;4.10;99.90;;;;;;5051475;28;20037;-73
2022/01/18 01:15:24;;;;;;;0.17;0.17;;;4.10;99.90;;;;;;5051974;28;20025;-74
2022/01/18 01:18:07;;;;;;;1.92;1.70;;;4.10;99.90;;;;;;5052142;28;20036;-73
2022/01/18 01:44:43;;;;;;;1.02;0.93;;;4.10;99.90;;;;;;5050227;28;20078;-74
2022/01/18 01:47:12;;;;;;;0.68;0.68;;;4.10;99.90;;;;;;5034419;28;20094;-74
2022/01/18 01:49:39;;;;;;;2.53;1.85;;;4.10;99.90;;;;;;5050326;28;20029;-74
2022/01/18 01:52:11;;;;;;;1.60;1.50;;;4.10;99.90;;;;;;5050377;28;20029;-74
2022/01/18 01:54:41;;;;;;;0.55;0.55;;;4.10;99.90;;;;;;5050808;28;20036;-74
2022/01/18 01:57:08;;;;;;;0.93;0.93;;;4.10;99.90;;;;;;5051607;28;20025;-74
2022/01/18 01:59:34;;;;;;;2.63;1.58;;;4.10;99.90;;;;;;5050465;28;20052;-74
2022/01/18 02:02:00;;;;;;;1.13;1.13;;;4.10;99.90;;;;;;5051737;28;20053;-75
2022/01/18 02:04:26;;;;;;;1.00;0.98;;;4.10;99.90;;;;;;5050453;28;20036;-74
2022/01/18 02:06:52;;;;;;;0.73;0.73;;;4.10;99.90;;;;;;5051360;28;20032;-74
2022/01/18 02:09:18;;;;;;;0.63;0.63;;;4.10;99.90;;;;;;5050100;28;20033;-74
2022/01/18 02:11:46;;;;;;;1.73;1.63;;;4.10;99.90;;;;;;5066423;28;20052;-74
2022/01/18 02:14:18;;;;;;;1.25;1.20;;;4.10;99.90;;;;;;5050180;28;20104;-74
2022/01/18 02:22:14;;;;;;;2.13;2.03;;;4.20;99.90;;;;;;5050294;28;20033;-73
2022/01/18 02:24:40;;;;;;;3.60;1.33;;;4.20;99.90;;;;;;5051223;28;20062;-74
2022/01/18 02:27:06;;;;;;;1.05;1.05;;;4.20;99.90;;;;;;5051549;28;20400;-74
2022/01/18 02:29:32;;;;;;;0.63;0.63;;;4.20;99.90;;;;;;5051139;28;20033;-74
2022/01/18 02:31:58;;;;;;;0.25;0.25;;;4.20;99.90;;;;;;5051520;28;20380;-74
2022/01/18 02:34:25;;;;;;;1.73;1.63;;;4.20;99.90;;;;;;5050332;28;20033;-74
2022/01/18 02:36:57;;;;;;;0.80;0.80;;;4.20;99.90;;;;;;5033631;28;20033;-74
2022/01/18 02:39:29;;;;;;;1.65;1.58;;;4.20;99.90;;;;;;5051208;28;20041;-73
2022/01/18 02:41:58;;;;;;;0.40;0.40;;;4.20;99.90;;;;;;5051492;28;20040;-74
2022/01/18 02:44:26;;;;;;;0.40;0.40;;;4.20;99.90;;;;;;5050064;28;20047;-74
2022/01/18 02:46:52;;;;;;;3.42;1.08;;;4.10;99.90;;;;;;5049923;28;20128;-74
2022/01/18 02:49:19;;;;;;;0.10;0.10;;;4.10;99.90;;;;;;5049728;28;20111;-73
2022/01/18 02:51:45;;;;;;;2.03;1.88;;;4.10;99.90;;;;;;5051292;28;20363;-74
2022/01/18 02:54:17;;;;;;;0.98;0.98;;;4.10;99.90;;;;;;5050141;28;20029;-74
2022/01/18 02:56:58;;;;;;;2.60;2.40;;;4.10;99.90;;;;;;5066578;28;20033;-73
2022/01/18 02:59:47;;;;;;;0.35;0.35;;;4.10;99.90;;;;;;5050569;28;20478;-73
2022/01/18 03:05:08;;;;;;;0.35;0.35;;;4.10;99.90;;;;;;5051030;28;20478;-75
2022/01/18 03:07:34;;;;;;;0.25;0.25;;;4.10;99.90;;;;;;5049686;28;20035;-74
2022/01/18 03:10:00;;;;;;;2.78;2.58;;;4.10;99.90;;;;;;5049517;28;20033;-75
2022/01/18 03:12:26;;;;;;;0.50;0.50;;;4.10;99.90;;;;;;5049700;28;20037;-75
2022/01/18 03:14:52;;;;;;;3.05;2.75;;;4.10;99.90;;;;;;5049496;28;20029;-74
2022/01/18 03:17:18;;;;;;;4.85;1.23;;;4.10;99.90;;;;;;5049780;28;20033;-74
2022/01/18 03:19:43;;;;;;;0.20;0.20;;;4.10;99.90;;;;;;5049316;28;20082;-75
2022/01/18 03:22:09;;;;;;;1.15;1.15;;;4.10;99.90;;;;;;5050670;28;20065;-74
2022/01/18 03:30:10;;;;;;;0.80;0.80;;;4.30;99.90;;;;;;5054183;28;20576;-74
2022/01/18 03:32:38;;;;;;;0.20;0.20;;;4.30;99.90;;;;;;5053133;28;20037;-74
2022/01/18 03:35:07;;;;;;;2.28;1.73;;;4.20;99.90;;;;;;5053151;28;20474;-75
2022/01/18 03:37:33;;;;;;;0.17;0.17;;;4.20;99.90;;;;;;5054270;28;20033;-74
2022/01/18 03:39:59;;;;;;;0.20;0.20;;;4.30;99.90;;;;;;5054445;28;20051;-74
2022/01/18 03:42:39;;;;;;;0.20;0.20;;;4.40;99.90;;;;;;5054087;28;20090;-74
2022/01/18 03:45:13;;;;;;;3.10;2.53;;;4.40;99.90;;;;;;5052911;28;20127;-75
2022/01/18 03:47:41;;;;;;;1.38;1.20;;;4.50;99.90;;;;;;5052418;28;20068;-74
2022/01/18 03:50:09;;;;;;;0.65;0.65;;;4.50;99.90;;;;;;5052427;28;20041;-75
2022/01/18 03:52:35;;;;;;;1.08;1.05;;;4.40;99.90;;;;;;5052585;28;20039;-74
2022/01/18 03:55:02;;;;;;;0.85;0.85;;;4.30;99.90;;;;;;5052580;28;20037;-74
2022/01/18 03:57:28;;;;;;;2.53;2.17;;;4.20;99.90;;;;;;5054125;28;20060;-74
2022/01/18 03:59:53;;;;;;;1.23;0.57;;;4.20;99.90;;;;;;5053250;28;20473;-75
2022/01/18 04:02:19;;;;;;;4.75;2.72;;;4.30;99.90;;;;;;5053633;28;20560;-75
2022/01/18 04:04:45;;;;;;;0.43;0.43;;;4.30;99.90;;;;;;5052657;28;20033;-74
2022/01/18 04:07:11;;;;;;;0.30;0.30;;;4.40;99.90;;;;;;5052584;28;20029;-73
2022/01/18 04:09:37;;;;;;;0.73;0.63;;;4.40;99.90;;;;;;5053481;28;20037;-73
2022/01/18 04:12:04;;;;;;;0.65;0.65;;;4.40;99.90;;;;;;5052588;28;20046;-74
2022/01/18 04:14:30;;;;;;;1.25;1.20;;;4.40;99.90;;;;;;5053696;28;20033;-74
2022/01/18 04:28:08;;;;;;;4.85;1.10;;;4.10;99.90;;;;;;5053072;28;20659;-73
2022/01/18 04:30:34;;;;;;;1.55;1.05;;;4.00;99.90;;;;;;5051889;28;20029;-74
2022/01/18 04:33:02;;;;;;;2.20;1.98;;;4.00;99.90;;;;;;5051928;28;20363;-74
2022/01/18 04:35:28;;;;;;;1.20;1.15;;;4.00;99.90;;;;;;5052624;28;20462;-74
2022/01/18 04:37:54;;;;;;;3.00;2.80;;;4.00;99.90;;;;;;5051557;28;20067;-74
2022/01/18 04:40:26;;;;;;;0.40;0.40;;;4.00;99.90;;;;;;5052968;28;20037;-74
2022/01/18 04:50:47;;;;;;;11.20;1.65;;;4.00;99.90;;;;;;5052701;28;20452;-74
2022/01/18 04:53:13;;;;;;;0.63;0.63;;;4.00;99.90;;;;;;5051449;28;20036;-74
2022/01/18 04:55:39;;;;;;;8.27;0.95;;;4.00;99.90;;;;;;5034750;28;20075;-74
2022/01/18 04:58:05;;;;;;;2.33;1.88;;;4.00;99.90;;;;;;5052877;28;20047;-74
2022/01/18 05:00:31;;;;;;;1.55;1.45;;;4.00;99.90;;;;;;5051053;28;20489;-74
2022/01/18 05:02:56;;;;;;;0.28;0.28;;;4.00;99.90;;;;;;5052144;28;20029;-74
2022/01/18 05:05:36;;;;;;;0.90;0.90;;;4.00;99.90;;;;;;5065992;28;20511;-73
2022/01/18 05:08:05;;;;;;;3.83;1.98;;;4.00;99.90;;;;;;5072125;28;20120;-74
2022/01/18 05:10:31;;;;;;;0.20;0.20;;;4.00;99.90;;;;;;5069555;28;20029;-74
2022/01/18 05:13:00;;;;;;;1.95;1.85;;;4.00;99.90;;;;;;5052742;28;20035;-76
2022/01/18 05:23:03;;;;;;;0.38;0.38;;;4.10;99.90;;;;;;5072253;28;20039;-73
2022/01/18 05:25:30;;;;;;;0.52;0.52;;;4.10;99.90;;;;;;5070838;28;20040;-73
2022/01/18 05:27:59;;;;;;;0.35;0.35;;;4.20;99.90;;;;;;5070640;28;20078;-73
2022/01/18 05:30:26;;;;;;;1.55;1.10;;;4.20;99.90;;;;;;5072089;28;20043;-73
2022/01/18 05:32:52;;;;;;;0.20;0.20;;;4.20;99.90;;;;;;5070933;28;20024;-73
2022/01/18 05:35:19;;;;;;;0.38;0.38;;;4.30;99.90;;;;;;5071959;28;20040;-73
2022/01/18 05:37:48;;;;;;;2.65;2.13;;;4.20;99.90;;;;;;5070628;28;20035;-73
2022/01/18 05:40:17;;;;;;;4.07;1.95;;;4.20;99.90;;;;;;5070557;28;20536;-73
2022/01/18 05:42:46;;;;;;;6.20;5.60;;;4.20;99.90;;;;;;5071635;28;20043;-73
2022/01/18 05:45:13;;;;;;;1.65;1.55;;;4.30;99.90;;;;;;5054680;28;20565;-74
2022/01/18 05:47:40;;;;;;;1.63;1.52;;;4.30;99.90;;;;;;5070871;28;20060;-74
2022/01/18 05:50:15;;;;;;;0.95;0.93;;;4.20;99.90;;;;;;5070454;28;20064;-74
2022/01/18 05:52:42;;;;;;;2.17;1.27;;;4.20;99.90;;;;;;5071611;28;20033;-74
2022/01/18 05:55:10;;;;;;;1.45;1.25;;;4.10;99.90;;;;;;5054063;28;20032;-74
2022/01/18 05:57:38;;;;;;;0.20;0.20;;;4.10;99.90;;;;;;5071809;28;20392;-74
2022/01/18 06:00:12;;;;;;;0.85;0.85;;;4.10;99.90;;;;;;5071688;28;20031;-74
2022/01/18 06:07:56;;;;;;;0.75;0.75;;;4.10;99.90;;;;;;5073182;28;20033;-76
2022/01/18 06:10:28;;;;;;;2.33;2.00;;;4.10;99.90;;;;;;5075060;28;20041;-75
2022/01/18 06:13:03;;;;;;;1.10;1.00;;;4.00;99.90;;;;;;5075240;28;20031;-75
2022/01/18 06:15:32;;;;;;;1.15;1.15;;;4.10;99.90;;;;;;5073335;28;20033;-73
2022/01/18 06:17:58;;;;;;;0.63;0.63;;;4.00;99.90;;;;;;5072941;28;20043;-73
2022/01/18 06:20:24;;;;;;;0.60;0.60;;;4.00;99.90;;;;;;5070395;28;20116;-73
2022/01/18 06:22:52;;;;;;;0.20;0.20;;;4.10;99.90;;;;;;5071547;28;20025;-71
2022/01/18 06:25:19;;;;;;;0.32;0.32;;;4.10;99.90;;;;;;5071172;28;20039;-71
2022/01/18 06:27:47;;;;;;;0.63;0.63;;;4.10;99.90;;;;;;5071372;28;20040;-72
2022/01/18 06:30:13;;;;;;;0.50;0.50;;;4.20;99.90;;;;;;5069927;28;20423;-71
2022/01/18 06:32:43;;;;;;;1.30;1.23;;;4.20;99.90;;;;;;5071518;28;20469;-71
2022/01/18 06:35:10;;;;;;;1.08;1.08;;;4.30;99.90;;;;;;5071601;28;20036;-73
2022/01/18 06:37:37;;;;;;;1.58;1.48;;;4.30;99.90;;;;;;5069903;28;20535;-73
2022/01/18 06:40:05;;;;;;;0.68;0.68;;;4.20;99.90;;;;;;5071316;28;20041;-72
2022/01/18 06:42:32;;;;;;;2.60;2.47;;;4.20;99.90;;;;;;5071690;28;20115;-71
2022/01/18 06:45:00;;;;;;;0.20;0.20;;;4.20;99.90;;;;;;5071331;28;20043;-71
2022/01/18 06:47:27;;;;;;;0.30;0.30;;;4.20;99.90;;;;;;5071033;28;20087;-72
2022/01/18 06:49:52;;;;;;;2.05;1.95;;;4.20;99.90;;;;;;5071202;28;20040;-71
2022/01/18 06:52:19;;;;;;;0.40;0.40;;;4.30;99.90;;;;;;5071537;28;20027;-72
2022/01/18 06:54:44;;;;;;;0.35;0.35;;;4.40;99.90;;;;;;5070054;28;20253;-72
2022/01/18 06:57:10;;;;;;;1.48;1.38;;;4.40;99.90;;;;;;5069896;28;20025;-71
2022/01/18 06:59:36;;;;;;;0.40;0.40;;;4.30;99.90;;;;;;5074522;28;20108;-71
2022/01/18 07:02:05;;;;;;;0.70;0.70;;;4.30;99.90;;;;;;5074934;28;20055;-71
2022/01/18 07:04:31;;;;;;;1.52;1.42;;;4.40;99.90;;;;;;5073922;28;20078;-72
2022/01/18 07:06:57;;;;;;;1.60;1.50;;;4.30;99.90;;;;;;5074558;28;20028;-72
2022/01/18 07:09:23;;;;;;;0.38;0.38;;;4.30;99.90;;;;;;5071297;28;20037;-72
2022/01/18 07:11:56;;;;;;;1.77;1.65;;;4.30;99.90;;;;;;5074769;28;20024;-72
2022/01/18 07:14:23;;;;;;;2.05;1.35;;;4.30;99.90;;;;;;5074597;28;20108;-72
2022/01/18 07:16:49;;;;;;;0.85;0.85;;;4.30;99.90;;;;;;5074251;28;20040;-72
2022/01/18 07:19:15;;;;;;;2.55;1.48;;;4.40;99.90;;;;;;5073131;28;20067;-72
2022/01/18 07:21:42;;;;;;;1.77;1.67;;;4.40;99.90;;;;;;5074224;28;20445;-72
2022/01/18 07:24:17;;;;;;;2.92;1.58;;;4.50;99.90;;;;;;5074041;28;20036;-72
2022/01/18 07:26:46;;;;;;;1.27;1.23;;;4.50;99.90;;;;;;5057968;28;20106;-72
2022/01/18 07:29:13;;;;;;;1.52;1.42;;;4.50;99.90;;;;;;5072947;28;20028;-71
2022/01/18 07:31:39;;;;;;;2.17;2.08;;;4.60;99.90;;;;;;5074648;28;20081;-72
2022/01/18 07:34:05;;;;;;;0.20;0.20;;;4.60;99.90;;;;;;5074278;28;20123;-71
2022/01/18 07:36:30;;;;;;;1.13;1.13;;;4.60;99.90;;;;;;5072968;28;20035;-75
2022/01/18 07:38:56;;;;;;;1.73;1.60;;;4.40;99.90;;;;;;5074552;28;20523;-73
2022/01/18 07:41:23;;;;;;;0.40;0.40;;;4.30;99.90;;;;;;5073493;28;20032;-73
2022/01/18 07:43:51;;;;;;;0.82;0.63;;;4.20;99.90;;;;;;5073918;28;20055;-73
2022/01/18 07:46:17;;;;;;;1.75;1.65;;;4.10;99.90;;;;;;5073671;28;20073;-72
2022/01/18 07:48:43;;;;;;;0.20;0.20;;;4.10;99.90;;;;;;5072549;28;20398;-71
2022/01/18 07:51:11;;;;;;;1.42;1.33;;;4.10;99.90;;;;;;5074001;28;20354;-72
2022/01/18 07:53:37;;;;;;;2.08;1.95;;;4.30;99.90;;;;;;5073720;28;20770;-71
2022/01/18 07:56:03;;;;;;;0.10;0.10;;;4.30;99.90;;;;;;5073446;28;20036;-71
2022/01/18 07:58:29;;;;;;;0.50;0.50;;;4.30;99.90;;;;;;5073932;28;20033;-72
2022/01/18 08:00:57;;;;;;;1.50;1.45;;;4.40;99.90;;;;;;5073424;28;20033;-73
2022/01/18 08:03:23;;;;;;;0.30;0.30;;;4.40;99.90;;;;;;5074079;28;20068;-72
2022/01/18 08:05:51;;;;;;;0.88;0.88;;;4.50;99.90;;;;;;5073392;28;20086;-73
2022/01/18 08:08:17;;;;;;;1.20;1.17;;;4.50;99.90;;;;;;5073651;28;20028;-73
2022/01/18 08:10:45;;;;;;;0.15;0.15;;;4.60;99.90;;;;;;5072699;28;20082;-73
2022/01/18 08:13:11;;;;;;;0.75;0.75;;;4.60;99.90;;;;;;5089346;28;20027;-73
2022/01/18 08:15:38;;;;;;;0.30;0.30;;;4.50;99.90;;;;;;5073644;28;20036;-71
2022/01/18 08:18:13;;;;;;;0.20;0.20;;;4.60;99.90;;;;;;5072092;28;20024;-72
2022/01/18 08:20:40;;;;;;;1.95;1.05;;;4.70;99.90;;;;;;5073253;28;20033;-72
2022/01/18 08:23:06;;;;;;;6.47;4.53;;;4.70;99.90;;;;;;5073518;28;20029;-73
2022/01/18 08:25:35;;;;;;;0.63;0.63;;;4.80;99.90;;;;;;5073505;28;20032;-73
2022/01/18 08:28:02;;;;;;;1.23;1.13;;;4.90;99.90;;;;;;5071841;28;20074;-73
2022/01/18 08:30:28;;;;;;;0.52;0.52;;;4.90;99.90;;;;;;5073237;28;20177;-73
2022/01/18 08:32:55;;;;;;;1.88;1.52;;;4.80;99.90;;;;;;5088885;28;20058;-73
2022/01/18 08:35:23;;;;;;;0.50;0.50;;;4.90;99.90;;;;;;5073063;28;20107;-73
2022/01/18 08:37:49;;;;;;;0.77;0.77;;;4.90;99.90;;;;;;5071739;28;20386;-73
2022/01/18 08:40:17;;;;;;;0.68;0.68;;;4.90;99.90;;;;;;5071914;28;20033;-73
2022/01/18 08:42:43;;;;;;;1.27;1.23;;;4.80;99.90;;;;;;5072761;28;20557;-73
2022/01/18 08:45:10;;;;;;;2.47;2.15;;;4.70;99.90;;;;;;5072771;28;20036;-73
2022/01/18 08:47:35;;;;;;;0.43;0.43;;;4.70;99.90;;;;;;5088293;28;20049;-73
2022/01/18 08:50:03;;;;;;;0.32;0.32;;;4.70;99.90;;;;;;5071350;28;20378;-72
2022/01/18 08:52:28;;;;;;;0.40;0.40;;;4.70;99.90;;;;;;5071493;28;20028;-72
2022/01/18 08:54:54;;;;;;;0.30;0.30;;;4.70;99.90;;;;;;5071102;28;20039;-72
2022/01/18 08:57:20;;;;;;;4.22;3.78;;;4.90;99.90;;;;;;5072864;28;20024;-72
2022/01/18 08:59:47;;;;;;;3.78;2.78;;;4.90;99.90;;;;;;5072441;28;20037;-73
2022/01/18 09:02:13;;;;;;;0.82;0.82;;;5.10;99.90;;;;;;5072170;28;20047;-73
2022/01/18 09:04:39;;;;;;;0.30;0.30;;;5.20;99.90;;;;;;5071559;28;20416;-73
2022/01/18 09:07:08;;;;;;;2.92;1.83;;;5.30;99.90;;;;;;5072054;28;20488;-73
2022/01/18 09:09:41;;;;;;;1.52;0.68;;;5.30;99.90;;;;;;5054672;28;20044;-73
2022/01/18 09:12:13;;;;;;;1.75;0.73;;;5.20;99.90;;;;;;5069404;28;20542;-72
2022/01/18 09:14:39;;;;;;;1.33;1.15;;;5.30;99.90;;;;;;5072520;28;20060;-72
2022/01/18 09:17:05;;;;;;;0.88;0.88;;;5.40;99.90;;;;;;5070821;28;20137;-73
2022/01/18 09:19:31;;;;;;;1.45;0.63;;;5.50;99.90;;;;;;5072169;28;20039;-72
2022/01/18 09:22:03;;;;;;;2.08;1.95;;;5.40;99.90;;;;;;5072089;28;20051;-72
2022/01/18 09:24:29;;;;;;;1.38;1.30;;;5.30;99.90;;;;;;5072444;28;20051;-72
2022/01/18 09:26:55;;;;;;;3.05;2.80;;;5.50;99.90;;;;;;5070930;28;20035;-72
2022/01/18 09:29:21;;;;;;;3.15;2.90;;;5.60;99.90;;;;;;5071882;28;20029;-72
2022/01/18 09:31:47;;;;;;;2.05;1.10;;;5.70;99.90;;;;;;5071933;28;20035;-72
2022/01/18 09:34:17;;;;;;;3.00;2.63;;;5.80;99.90;;;;;;5071798;28;20029;-72
2022/01/18 09:36:43;;;;;;;1.58;1.52;;;5.80;99.90;;;;;;5071958;28;20481;-72
2022/01/18 09:39:09;;;;;;;17.40;3.25;;;6.00;99.90;;;;;;5071793;28;20040;-72
2022/01/18 09:41:39;;;;;;;1.00;0.90;;;6.10;99.90;;;;;;5070663;28;20032;-72
2022/01/18 09:44:07;;;;;;;10.32;3.88;;;6.20;99.90;;;;;;5070911;28;20085;-72
2022/01/18 09:46:33;;;;;;;0.45;0.45;;;6.10;99.90;;;;;;5071860;28;20072;-72
2022/01/18 09:49:00;;;;;;;2.38;2.17;;;5.90;99.90;;;;;;5071436;28;20548;-72
2022/01/18 09:51:28;;;;;;;6.07;2.13;;;6.20;99.90;;;;;;5071767;28;20028;-73
2022/01/18 09:53:55;;;;;;;2.30;1.85;;;6.20;99.90;;;;;;5070392;28;20051;-73
2022/01/18 09:56:21;;;;;;;0.95;0.85;;;6.20;99.90;;;;;;5071950;28;20054;-72
2022/01/18 09:58:46;;;;;;;2.05;1.95;;;6.40;99.90;;;;;;5070670;28;20033;-72
2022/01/18 10:01:12;;;;;;;0.63;0.63;;;6.60;99.90;;;;;;5071649;28;20531;-73
2022/01/18 10:03:41;;;;;;;3.30;1.40;;;6.60;99.90;;;;;;5071391;28;20519;-73
2022/01/18 10:06:09;;;;;;;0.80;0.80;;;6.60;99.90;;;;;;5070144;28;20103;-73
2022/01/18 10:08:40;;;;;;;8.75;2.40;;;6.70;99.90;;;;;;5070459;28;20032;-72
2022/01/18 10:11:16;;;;;;;14.70;1.90;;;6.80;99.90;;;;;;5071544;28;20082;-73
2022/01/18 10:13:49;;;;;;;0.65;0.65;;;6.80;99.90;;;;;;5070539;28;20104;-73
2022/01/18 10:16:20;;;;;;;0.90;0.90;;;6.90;99.90;;;;;;5070562;28;20120;-72
2022/01/18 10:19:08;;;;;;;2.95;1.50;;;6.80;99.90;;;;;;5070105;28;20021;-72
2022/01/18 10:21:40;;;;;;;0.88;0.85;;;6.70;99.90;;;;;;5071849;28;20120;-73
2022/01/18 10:24:15;;;;;;;4.32;2.13;;;6.80;99.90;;;;;;5070093;28;20503;-72
2022/01/18 10:26:42;;;;;;;1.15;1.10;;;6.80;99.90;;;;;;5071292;28;20080;-73
2022/01/18 10:29:12;;;;;;;0.50;0.50;;;6.80;99.90;;;;;;5071291;28;20124;-72
2022/01/18 10:31:57;;;;;;;0.55;0.55;;;6.90;99.90;;;;;;5070154;28;20040;-72
2022/01/18 10:37:15;;;;;;;0.43;0.43;;;7.00;99.90;;;;;;5075556;28;20024;-73
2022/01/18 10:39:54;;;;;;;5.07;0.88;;;7.10;99.90;;;;;;5074003;28;20036;-73
2022/01/18 10:42:39;;;;;;;5.30;1.27;;;7.10;99.90;;;;;;5073872;28;20086;-73
2022/01/18 10:45:31;;;;;;;0.30;0.30;;;7.30;99.90;;;;;;5075208;28;20065;-73
2022/01/18 10:48:11;;;;;;;16.02;1.50;;;7.50;99.90;;;;;;5073676;28;20051;-73
2022/01/18 10:50:44;;;;;;;1.75;1.65;;;7.40;99.90;;;;;;5074865;28;20647;-72
2022/01/18 10:53:21;;;;;;;4.40;1.92;;;7.60;99.90;;;;;;5090235;28;20024;-72
2022/01/18 10:56:10;;;;;;;0.10;0.10;;;7.80;99.90;;;;;;5057267;28;20548;-72
2022/01/18 10:58:48;;;;;;;1.00;0.47;;;7.70;99.90;;;;;;5074747;28;20048;-72
2022/01/18 11:01:21;;;;;;;0.40;0.40;;;7.60;99.90;;;;;;5075077;28;20028;-72
2022/01/18 11:04:07;;;;;;;0.20;0.20;;;7.50;99.90;;;;;;5073651;28;20039;-72
2022/01/18 11:06:35;;;;;;;0.30;0.30;;;7.70;99.90;;;;;;5068518;28;20496;-72
2022/01/18 11:09:15;;;;;;;0.38;0.38;;;7.90;99.90;;;;;;5053341;28;20324;-72
2022/01/18 11:11:47;;;;;;;0.10;0.10;;;8.00;99.90;;;;;;5036897;28;20079;-72
2022/01/18 11:14:19;;;;;;;1.10;0.75;;;7.80;99.90;;;;;;5054758;28;20068;-72
2022/01/18 11:16:48;;;;;;;0.15;0.15;;;8.00;99.90;;;;;;5054598;28;20036;-72
2022/01/18 11:21:49;;;;;;;0.85;0.85;;;8.10;99.90;;;;;;5054432;28;20029;-72
2022/01/18 11:24:17;;;;;;;2.05;1.85;;;7.90;99.90;;;;;;5068861;28;20024;-72
2022/01/18 11:26:45;;;;;;;0.40;0.40;;;8.10;99.90;;;;;;5073092;28;20043;-72
2022/01/18 11:29:15;;;;;;;0.10;0.10;;;8.20;99.90;;;;;;5072996;28;20115;-72
2022/01/18 11:31:41;;;;;;;1.95;1.50;;;8.00;99.90;;;;;;5074001;28;20024;-72
2022/01/18 11:34:13;;;;;;;0.45;0.45;;;8.00;99.90;;;;;;5073189;28;20093;-72
2022/01/18 11:36:48;;;;;;;0.10;0.10;;;8.20;99.90;;;;;;5073300;28;20032;-72
2022/01/18 11:39:18;;;;;;;0.10;0.10;;;8.30;99.90;;;;;;5073345;28;20027;-72
2022/01/18 11:41:44;;;;;;;0.30;0.30;;;8.30;99.90;;;;;;5074420;28;20029;-72
2022/01/18 11:44:19;;;;;;;0.45;0.45;;;8.30;99.90;;;;;;5072539;28;20035;-73
2022/01/18 11:46:55;;;;;;;0.00;0.00;;;8.20;99.90;;;;;;5073528;28;20062;-72
2022/01/18 11:49:32;;;;;;;0.20;0.20;;;8.20;99.90;;;;;;5072898;28;20584;-72
2022/01/18 11:52:09;;;;;;;0.43;0.38;;;8.20;99.90;;;;;;5074043;28;20039;-73
2022/01/18 11:57:22;;;;;;;0.20;0.20;;;8.20;99.90;;;;;;5072636;28;20032;-72
2022/01/18 11:59:52;;;;;;;0.20;0.20;;;8.20;99.90;;;;;;5073874;28;20041;-73
2022/01/18 12:02:42;;;;;;;0.38;0.38;;;8.20;99.90;;;;;;5072360;28;20912;-72
2022/01/18 12:05:19;;;;;;;0.00;0.00;;;8.20;99.90;;;;;;5073614;28;20527;-72
2022/01/18 12:07:47;;;;;;;0.10;0.10;;;8.20;99.90;;;;;;5072780;28;20048;-71
2022/01/18 12:10:38;;;;;;;0.00;0.00;;;8.20;99.90;;;;;;5073881;28;20040;-72
2022/01/18 12:13:13;;;;;;;0.00;0.00;;;8.30;99.90;;;;;;5073380;28;20033;-73
2022/01/18 12:15:49;;;;;;;0.00;0.00;;;8.20;99.90;;;;;;5056373;28;20375;-72
2022/01/18 12:18:19;;;;;;;0.00;0.00;;;8.50;99.90;;;;;;5073475;28;20100;-72
2022/01/18 12:20:48;;;;;;;0.00;0.00;;;8.40;99.90;;;;;;5073649;28;20041;-72
2022/01/18 12:23:42;;;;;;;1.25;0.30;;;8.40;99.90;;;;;;5072961;28;20024;-72
2022/01/18 12:26:38;;;;;;;0.00;0.00;;;8.30;99.90;;;;;;5071155;28;20091;-73
2022/01/18 12:34:34;;;;;;;0.03;0.03;;;8.50;99.90;;;;;;5071620;28;20030;-72
2022/01/18 12:37:10;;;;;;;0.20;0.20;;;8.50;99.90;;;;;;5071739;28;20082;-72
2022/01/18 12:39:59;;;;;;;0.00;0.00;;;8.60;99.90;;;;;;5073399;28;20033;-72
2022/01/18 12:45:11;;;;;;;0.30;0.30;;;8.70;99.90;;;;;;5071618;28;20611;-72
2022/01/18 12:47:59;;;;;;;0.00;0.00;;;8.80;99.90;;;;;;5071659;28;20072;-73
2022/01/18 12:50:47;;;;;;;0.00;0.00;;;8.90;99.90;;;;;;5072816;28;20485;-73
2022/01/18 12:53:31;;;;;;;0.52;0.52;;;8.60;99.90;;;;;;5071757;28;20059;-72
2022/01/18 12:56:03;;;;;;;0.00;0.00;;;8.50;99.90;;;;;;5072548;28;20118;-73
2022/01/18 12:58:42;;;;;;;0.00;0.00;;;8.60;99.90;;;;;;5072916;28;20444;-73
2022/01/18 13:01:24;;;;;;;0.28;0.28;;;8.70;99.90;;;;;;5072778;28;20036;-72
2022/01/18 13:03:54;;;;;;;6.75;0.65;;;8.70;99.90;;;;;;5072787;28;20056;-72
2022/01/18 13:06:26;;;;;;;0.00;0.00;;;8.60;99.90;;;;;;5072373;28;20037;-72
2022/01/18 13:09:00;;;;;;;0.10;0.10;;;8.40;99.90;;;;;;5088071;28;20035;-72
2022/01/18 13:11:32;;;;;;;0.08;0.08;;;8.30;99.90;;;;;;5061851;28;20051;-72
2022/01/18 13:14:10;;;;;;;0.00;0.00;;;8.40;99.90;;;;;;5050976;28;20068;-72
2022/01/18 13:27:31;;;;;;;0.00;0.00;;;8.60;99.90;;;;;;5072029;28;20029;-72
2022/01/18 13:30:22;;;;;;;0.00;0.00;;;8.80;99.90;;;;;;5072237;28;20041;-72
2022/01/18 13:32:51;;;;;;;0.00;0.00;;;8.90;99.90;;;;;;5072109;28;20024;-72
2022/01/18 13:35:28;;;;;;;0.00;0.00;;;8.80;99.90;;;;;;5072045;28;20032;-72
2022/01/18 13:38:03;;;;;;;0.00;0.00;;;8.80;99.90;;;;;;5087624;28;20074;-72
2022/01/18 13:40:31;;;;;;;0.10;0.10;;;9.10;99.90;;;;;;5071875;28;20363;-73
2022/01/18 13:43:09;;;;;;;0.10;0.10;;;9.20;99.90;;;;;;5071842;28;20025;-72
2022/01/18 13:45:39;;;;;;;0.40;0.40;;;9.20;99.90;;;;;;5070630;28;20025;-73
2022/01/18 13:48:10;;;;;;;0.00;0.00;;;8.80;99.90;;;;;;5071658;28;20055;-72
2022/01/18 13:50:50;;;;;;;;;;;8.80;99.90;;;;;;5070711;28;20037;-72
2022/01/18 13:53:36;;;;;;;0.47;0.47;;;8.60;99.90;;;;;;5055372;28;19913;-72
2022/01/18 13:56:18;;;;;;;0.03;0.03;;;8.30;99.90;;;;;;5072065;28;20028;-72
2022/01/18 13:58:50;;;;;;;0.10;0.10;;;8.20;99.90;;;;;;5070922;28;20028;-72
2022/01/18 14:01:24;;;;;;;0.00;0.00;;;8.20;99.90;;;;;;5071586;28;20028;-73
2022/01/18 14:03:56;;;;;;;2.95;0.85;;;8.20;99.90;;;;;;5071783;28;20077;-73
2022/01/18 14:06:38;;;;;;;0.00;0.00;;;8.10;99.90;;;;;;5070232;28;20611;-72
2022/01/18 14:09:05;;;;;;;0.00;0.00;;;8.10;99.90;;;;;;5071031;28;20067;-73
2022/01/18 14:11:35;;;;;;;0.00;0.00;;;7.90;99.90;;;;;;5071906;28;20055;-73
2022/01/18 14:14:14;;;;;;;0.00;0.00;;;7.90;99.90;;;;;;5070599;28;20021;-72
2022/01/18 14:16:49;;;;;;;0.05;0.05;;;7.90;99.90;;;;;;5071747;28;20139;-72
2022/01/18 14:19:44;;;;;;;0.10;0.10;;;8.00;99.90;;;;;;5070068;28;20288;-73
2022/01/18 14:22:16;;;;;;;0.00;0.00;;;8.00;99.90;;;;;;5084108;28;20078;-72
2022/01/18 14:24:48;;;;;;;0.10;0.10;;;7.80;99.90;;;;;;5071765;28;20125;-72
2022/01/18 14:27:28;;;;;;;0.00;0.00;;;7.80;99.90;;;;;;5071554;28;20024;-72
2022/01/18 14:30:07;;;;;;;0.10;0.10;;;7.70;99.90;;;;;;5071564;28;20410;-72
2022/01/18 14:32:44;;;;;;;0.00;0.00;;;7.70;99.90;;;;;;5071411;28;20429;-71
2022/01/18 14:35:21;;;;;;;0.00;0.00;;;7.80;99.90;;;;;;5070008;28;20024;-72
2022/01/18 14:37:54;;;;;;;0.00;0.00;;;7.60;99.90;;;;;;5071937;28;20542;-72
2022/01/18 14:40:29;;;;;;;0.00;0.00;;;7.50;99.90;;;;;;5070475;28;20477;-72
2022/01/18 14:43:10;;;;;;;1.27;1.20;;;7.50;99.90;;;;;;5070057;28;20556;-72
2022/01/18 14:46:21;;;;;;;0.00;0.00;;;7.50;99.90;;;;;;5071550;28;20079;-72
2022/01/18 14:48:35;;;;;;;0.00;0.00;;;7.60;99.90;;;;;;5070826;28;20049;-72
2022/01/18 14:51:02;;;;;;;0.10;0.10;;;7.60;99.90;;;;;;5069840;28;20029;-72
2022/01/18 14:53:28;;;;;;;0.35;0.35;;;7.60;99.90;;;;;;5071491;28;20127;-72
2022/01/18 14:55:55;;;;;;;0.10;0.10;;;7.60;99.90;;;;;;5070237;28;20242;-72
2022/01/18 14:58:21;;;;;;;0.20;0.20;;;7.60;99.90;;;;;;5070649;28;20025;-72
2022/01/18 15:00:49;;;;;;;0.20;0.20;;;7.50;99.90;;;;;;5053166;28;20412;-71